sensor_id;sensor_type;location;lat;lon;timestamp;P1;durP1;ratioP1;P2;durP2;ratioP2
62153;SDS011;48140;45.486;9.226;2023-05-16T00:01:25;7.53;;;4.85;;
62153;SDS011;48140;45.486;9.226;2023-05-16T00:03:54;9.52;;;4.93;;
62153;SDS011;48140;45.486;9.226;2023-05-16T00:06:22;8.05;;;5.30;;
62153;SDS011;48140;45.486;9.226;2023-05-16T00:08:48;7.65;;;4.95;;
62153;SDS011;48140;45.486;9.226;2023-05-16T00:11:15;8.98;;;5.13;;
62153;SDS011;48140;45.486;9.226;2023-05-16T00:13:41;7.72;;;5.28;;
62153;SDS011;48140;45.486;9.226;2023-05-16T00:16:07;7.30;;;5.20;;
62153;SDS011;48140;45.486;9.226;2023-05-16T00:18:33;8.32;;;5.20;;
62153;SDS011;48140;45.486;9.226;2023-05-16T00:21:02;7.53;;;5.50;;
62153;SDS011;48140;45.486;9.226;2023-05-16T00:23:29;8.43;;;5.50;;
62153;SDS011;48140;45.486;9.226;2023-05-16T00:25:55;8.00;;;5.32;;
62153;SDS011;48140;45.486;9.226;2023-05-16T00:28:20;7.78;;;5.53;;
62153;SDS011;48140;45.486;9.226;2023-05-16T00:30:46;7.93;;;4.85;;
62153;SDS011;48140;45.486;9.226;2023-05-16T00:33:12;11.38;;;5.60;;
62153;SDS011;48140;45.486;9.226;2023-05-16T00:35:38;9.07;;;4.97;;
62153;SDS011;48140;45.486;9.226;2023-05-16T00:38:04;7.60;;;5.20;;
62153;SDS011;48140;45.486;9.226;2023-05-16T00:40:30;6.80;;;5.13;;
62153;SDS011;48140;45.486;9.226;2023-05-16T00:42:56;8.48;;;5.40;;
62153;SDS011;48140;45.486;9.226;2023-05-16T00:45:22;7.13;;;4.43;;
62153;SDS011;48140;45.486;9.226;2023-05-16T00:47:50;6.18;;;4.60;;
62153;SDS011;48140;45.486;9.226;2023-05-16T00:50:16;6.18;;;4.72;;
62153;SDS011;48140;45.486;9.226;2023-05-16T00:52:42;8.60;;;4.68;;
62153;SDS011;48140;45.486;9.226;2023-05-16T00:55:08;7.15;;;4.78;;
62153;SDS011;48140;45.486;9.226;2023-05-16T00:57:35;8.35;;;5.18;;
62153;SDS011;48140;45.486;9.226;2023-05-16T01:00:02;7.40;;;5.13;;
62153;SDS011;48140;45.486;9.226;2023-05-16T01:02:30;7.43;;;4.85;;
62153;SDS011;48140;45.486;9.226;2023-05-16T01:04:58;9.52;;;5.10;;
62153;SDS011;48140;45.486;9.226;2023-05-16T01:07:26;8.52;;;5.22;;
62153;SDS011;48140;45.486;9.226;2023-05-16T01:09:52;7.10;;;5.20;;
62153;SDS011;48140;45.486;9.226;2023-05-16T01:15:43;10.02;;;6.43;;
62153;SDS011;48140;45.486;9.226;2023-05-16T01:18:15;8.15;;;5.45;;
62153;SDS011;48140;45.486;9.226;2023-05-16T01:21:00;11.50;;;5.75;;
62153;SDS011;48140;45.486;9.226;2023-05-16T01:26:25;8.18;;;5.75;;
62153;SDS011;48140;45.486;9.226;2023-05-16T01:28:52;10.15;;;5.80;;
62153;SDS011;48140;45.486;9.226;2023-05-16T01:31:21;9.02;;;6.35;;
62153;SDS011;48140;45.486;9.226;2023-05-16T01:33:47;13.15;;;5.78;;
62153;SDS011;48140;45.486;9.226;2023-05-16T01:41:52;10.65;;;5.32;;
62153;SDS011;48140;45.486;9.226;2023-05-16T01:47:13;7.82;;;5.10;;
62153;SDS011;48140;45.486;9.226;2023-05-16T01:49:57;8.85;;;5.72;;
62153;SDS011;48140;45.486;9.226;2023-05-16T01:52:34;9.73;;;5.50;;
62153;SDS011;48140;45.486;9.226;2023-05-16T01:55:15;6.72;;;4.50;;
62153;SDS011;48140;45.486;9.226;2023-05-16T01:57:44;7.00;;;4.70;;
62153;SDS011;48140;45.486;9.226;2023-05-16T02:00:12;9.85;;;4.93;;
62153;SDS011;48140;45.486;9.226;2023-05-16T02:02:38;7.85;;;4.97;;
62153;SDS011;48140;45.486;9.226;2023-05-16T02:05:03;10.88;;;5.20;;
62153;SDS011;48140;45.486;9.226;2023-05-16T02:07:29;7.68;;;4.95;;
62153;SDS011;48140;45.486;9.226;2023-05-16T02:09:55;6.72;;;4.55;;
62153;SDS011;48140;45.486;9.226;2023-05-16T02:12:21;6.80;;;4.65;;
62153;SDS011;48140;45.486;9.226;2023-05-16T02:14:46;6.85;;;4.97;;
62153;SDS011;48140;45.486;9.226;2023-05-16T02:17:12;6.18;;;4.45;;
62153;SDS011;48140;45.486;9.226;2023-05-16T02:19:38;7.13;;;4.65;;
62153;SDS011;48140;45.486;9.226;2023-05-16T02:22:03;6.03;;;4.30;;
62153;SDS011;48140;45.486;9.226;2023-05-16T02:24:29;7.22;;;5.00;;
62153;SDS011;48140;45.486;9.226;2023-05-16T02:26:55;7.50;;;5.07;;
62153;SDS011;48140;45.486;9.226;2023-05-16T02:29:20;6.57;;;4.20;;
62153;SDS011;48140;45.486;9.226;2023-05-16T02:31:46;10.52;;;4.68;;
62153;SDS011;48140;45.486;9.226;2023-05-16T02:34:12;6.55;;;4.55;;
62153;SDS011;48140;45.486;9.226;2023-05-16T02:36:37;8.95;;;5.05;;
62153;SDS011;48140;45.486;9.226;2023-05-16T02:39:03;8.43;;;4.35;;
62153;SDS011;48140;45.486;9.226;2023-05-16T02:41:29;6.38;;;4.57;;
62153;SDS011;48140;45.486;9.226;2023-05-16T02:44:10;7.90;;;5.25;;
62153;SDS011;48140;45.486;9.226;2023-05-16T02:46:35;9.20;;;5.32;;
62153;SDS011;48140;45.486;9.226;2023-05-16T02:49:01;8.57;;;5.05;;
62153;SDS011;48140;45.486;9.226;2023-05-16T02:51:27;9.27;;;4.78;;
62153;SDS011;48140;45.486;9.226;2023-05-16T02:53:53;7.20;;;4.78;;
62153;SDS011;48140;45.486;9.226;2023-05-16T02:56:24;7.65;;;4.65;;
62153;SDS011;48140;45.486;9.226;2023-05-16T02:58:50;5.70;;;4.32;;
62153;SDS011;48140;45.486;9.226;2023-05-16T03:01:17;7.63;;;4.78;;
62153;SDS011;48140;45.486;9.226;2023-05-16T03:03:43;6.63;;;4.50;;
62153;SDS011;48140;45.486;9.226;2023-05-16T03:06:09;7.80;;;5.20;;
62153;SDS011;48140;45.486;9.226;2023-05-16T03:08:35;9.00;;;5.00;;
62153;SDS011;48140;45.486;9.226;2023-05-16T03:11:00;9.38;;;4.65;;
62153;SDS011;48140;45.486;9.226;2023-05-16T03:13:26;9.30;;;4.43;;
62153;SDS011;48140;45.486;9.226;2023-05-16T03:15:54;7.43;;;5.20;;
62153;SDS011;48140;45.486;9.226;2023-05-16T03:18:20;8.65;;;4.80;;
62153;SDS011;48140;45.486;9.226;2023-05-16T03:20:46;6.50;;;4.32;;
62153;SDS011;48140;45.486;9.226;2023-05-16T03:23:11;8.77;;;5.10;;
62153;SDS011;48140;45.486;9.226;2023-05-16T03:25:37;6.68;;;4.97;;
62153;SDS011;48140;45.486;9.226;2023-05-16T03:28:04;7.88;;;4.70;;
62153;SDS011;48140;45.486;9.226;2023-05-16T03:30:33;7.05;;;4.78;;
62153;SDS011;48140;45.486;9.226;2023-05-16T03:32:59;8.73;;;5.10;;
62153;SDS011;48140;45.486;9.226;2023-05-16T03:35:27;8.13;;;5.22;;
62153;SDS011;48140;45.486;9.226;2023-05-16T03:37:53;8.73;;;4.85;;
62153;SDS011;48140;45.486;9.226;2023-05-16T03:40:19;8.02;;;4.50;;
62153;SDS011;48140;45.486;9.226;2023-05-16T03:42:45;8.10;;;4.75;;
62153;SDS011;48140;45.486;9.226;2023-05-16T03:45:13;7.70;;;5.10;;
62153;SDS011;48140;45.486;9.226;2023-05-16T03:47:38;9.57;;;4.78;;
62153;SDS011;48140;45.486;9.226;2023-05-16T03:50:04;7.88;;;4.85;;
62153;SDS011;48140;45.486;9.226;2023-05-16T03:52:30;8.75;;;5.32;;
62153;SDS011;48140;45.486;9.226;2023-05-16T03:54:59;7.63;;;4.82;;
62153;SDS011;48140;45.486;9.226;2023-05-16T03:57:26;8.40;;;5.28;;
62153;SDS011;48140;45.486;9.226;2023-05-16T03:59:51;8.10;;;5.13;;
62153;SDS011;48140;45.486;9.226;2023-05-16T04:02:17;7.82;;;5.30;;
62153;SDS011;48140;45.486;9.226;2023-05-16T04:04:42;8.40;;;5.13;;
62153;SDS011;48140;45.486;9.226;2023-05-16T04:07:09;7.78;;;4.88;;
62153;SDS011;48140;45.486;9.226;2023-05-16T04:09:35;7.65;;;5.30;;
62153;SDS011;48140;45.486;9.226;2023-05-16T04:12:01;8.85;;;5.22;;
62153;SDS011;48140;45.486;9.226;2023-05-16T04:14:27;9.90;;;5.70;;
62153;SDS011;48140;45.486;9.226;2023-05-16T04:16:52;10.52;;;5.45;;
62153;SDS011;48140;45.486;9.226;2023-05-16T04:19:18;7.93;;;5.07;;
62153;SDS011;48140;45.486;9.226;2023-05-16T04:21:44;8.38;;;5.75;;
62153;SDS011;48140;45.486;9.226;2023-05-16T04:24:09;7.43;;;4.97;;
62153;SDS011;48140;45.486;9.226;2023-05-16T04:26:35;8.38;;;5.22;;
62153;SDS011;48140;45.486;9.226;2023-05-16T04:29:01;6.95;;;5.22;;
62153;SDS011;48140;45.486;9.226;2023-05-16T04:31:27;8.68;;;5.25;;
62153;SDS011;48140;45.486;9.226;2023-05-16T04:33:53;6.82;;;4.60;;
62153;SDS011;48140;45.486;9.226;2023-05-16T04:36:20;8.68;;;5.13;;
62153;SDS011;48140;45.486;9.226;2023-05-16T04:38:47;6.75;;;5.38;;
62153;SDS011;48140;45.486;9.226;2023-05-16T04:41:13;9.10;;;5.18;;
62153;SDS011;48140;45.486;9.226;2023-05-16T04:43:38;8.57;;;5.13;;
62153;SDS011;48140;45.486;9.226;2023-05-16T04:46:04;9.85;;;5.32;;
62153;SDS011;48140;45.486;9.226;2023-05-16T04:48:32;8.60;;;5.60;;
62153;SDS011;48140;45.486;9.226;2023-05-16T04:50:58;8.23;;;5.38;;
62153;SDS011;48140;45.486;9.226;2023-05-16T04:53:24;9.90;;;5.43;;
62153;SDS011;48140;45.486;9.226;2023-05-16T05:25:18;9.00;;;5.90;;
62153;SDS011;48140;45.486;9.226;2023-05-16T05:27:47;9.63;;;5.85;;
62153;SDS011;48140;45.486;9.226;2023-05-16T05:37:03;8.82;;;6.07;;
62153;SDS011;48140;45.486;9.226;2023-05-16T05:50:49;12.10;;;6.93;;
62153;SDS011;48140;45.486;9.226;2023-05-16T06:24:44;11.95;;;8.27;;
62153;SDS011;48140;45.486;9.226;2023-05-16T07:27:26;7.78;;;3.88;;
62153;SDS011;48140;45.486;9.226;2023-05-16T07:52:11;6.60;;;3.80;;
62153;SDS011;48140;45.486;9.226;2023-05-16T07:55:41;7.93;;;4.50;;
62153;SDS011;48140;45.486;9.226;2023-05-16T07:58:19;6.95;;;4.45;;
62153;SDS011;48140;45.486;9.226;2023-05-16T08:08:08;9.80;;;5.47;;
62153;SDS011;48140;45.486;9.226;2023-05-16T08:13:57;9.10;;;5.68;;
62153;SDS011;48140;45.486;9.226;2023-05-16T08:20:15;10.70;;;6.38;;
62153;SDS011;48140;45.486;9.226;2023-05-16T08:22:44;9.25;;;6.50;;
62153;SDS011;48140;45.486;9.226;2023-05-16T08:25:25;9.48;;;6.70;;
62153;SDS011;48140;45.486;9.226;2023-05-16T08:31:06;11.93;;;6.32;;
62153;SDS011;48140;45.486;9.226;2023-05-16T08:33:48;10.15;;;6.20;;
62153;SDS011;48140;45.486;9.226;2023-05-16T08:43:59;10.77;;;5.20;;
62153;SDS011;48140;45.486;9.226;2023-05-16T08:46:31;7.00;;;4.65;;
62153;SDS011;48140;45.486;9.226;2023-05-16T08:49:26;7.35;;;3.85;;
62153;SDS011;48140;45.486;9.226;2023-05-16T08:51:56;8.15;;;3.10;;
62153;SDS011;48140;45.486;9.226;2023-05-16T08:57:13;4.47;;;2.75;;
62153;SDS011;48140;45.486;9.226;2023-05-16T09:10:08;5.75;;;2.10;;
62153;SDS011;48140;45.486;9.226;2023-05-16T09:12:35;3.55;;;1.63;;
62153;SDS011;48140;45.486;9.226;2023-05-16T09:18:38;7.10;;;1.80;;
62153;SDS011;48140;45.486;9.226;2023-05-16T09:21:32;5.55;;;1.40;;
62153;SDS011;48140;45.486;9.226;2023-05-16T09:31:19;4.10;;;1.70;;
62153;SDS011;48140;45.486;9.226;2023-05-16T09:38:19;3.30;;;1.80;;
62153;SDS011;48140;45.486;9.226;2023-05-16T09:41:27;3.15;;;1.40;;
62153;SDS011;48140;45.486;9.226;2023-05-16T10:14:40;3.85;;;1.98;;
62153;SDS011;48140;45.486;9.226;2023-05-16T10:17:46;3.20;;;1.90;;
62153;SDS011;48140;45.486;9.226;2023-05-16T10:27:15;4.18;;;2.00;;
62153;SDS011;48140;45.486;9.226;2023-05-16T10:37:21;3.78;;;2.58;;
62153;SDS011;48140;45.486;9.226;2023-05-16T10:40:20;5.45;;;2.00;;
62153;SDS011;48140;45.486;9.226;2023-05-16T10:45:50;3.60;;;2.17;;
62153;SDS011;48140;45.486;9.226;2023-05-16T11:10:37;4.85;;;2.22;;
62153;SDS011;48140;45.486;9.226;2023-05-16T11:13:08;3.95;;;2.08;;
62153;SDS011;48140;45.486;9.226;2023-05-16T11:15:40;3.95;;;2.22;;
62153;SDS011;48140;45.486;9.226;2023-05-16T11:18:25;6.18;;;2.63;;
62153;SDS011;48140;45.486;9.226;2023-05-16T11:21:01;7.00;;;2.35;;
62153;SDS011;48140;45.486;9.226;2023-05-16T11:26:57;5.65;;;2.28;;
62153;SDS011;48140;45.486;9.226;2023-05-16T11:29:32;4.45;;;2.45;;
62153;SDS011;48140;45.486;9.226;2023-05-16T11:32:03;3.47;;;2.15;;
62153;SDS011;48140;45.486;9.226;2023-05-16T11:44:45;3.70;;;1.98;;
62153;SDS011;48140;45.486;9.226;2023-05-16T11:47:16;3.50;;;2.13;;
62153;SDS011;48140;45.486;9.226;2023-05-16T12:45:18;4.45;;;2.25;;
62153;SDS011;48140;45.486;9.226;2023-05-16T12:47:48;3.60;;;2.20;;
62153;SDS011;48140;45.486;9.226;2023-05-16T12:57:35;4.18;;;2.47;;
62153;SDS011;48140;45.486;9.226;2023-05-16T13:00:06;5.47;;;2.70;;
62153;SDS011;48140;45.486;9.226;2023-05-16T13:03:11;4.05;;;2.40;;
62153;SDS011;48140;45.486;9.226;2023-05-16T13:05:40;6.78;;;2.70;;
62153;SDS011;48140;45.486;9.226;2023-05-16T13:08:06;5.43;;;2.88;;
62153;SDS011;48140;45.486;9.226;2023-05-16T13:10:37;4.32;;;2.47;;
62153;SDS011;48140;45.486;9.226;2023-05-16T13:17:21;4.93;;;2.53;;
62153;SDS011;48140;45.486;9.226;2023-05-16T13:23:20;5.63;;;2.53;;
62153;SDS011;48140;45.486;9.226;2023-05-16T13:25:48;4.78;;;2.72;;
62153;SDS011;48140;45.486;9.226;2023-05-16T13:37:43;3.75;;;2.30;;
62153;SDS011;48140;45.486;9.226;2023-05-16T13:40:10;4.18;;;2.65;;
62153;SDS011;48140;45.486;9.226;2023-05-16T13:42:57;5.13;;;2.85;;
62153;SDS011;48140;45.486;9.226;2023-05-16T13:45:46;4.25;;;2.35;;
62153;SDS011;48140;45.486;9.226;2023-05-16T13:48:13;4.55;;;2.35;;
62153;SDS011;48140;45.486;9.226;2023-05-16T13:50:39;3.90;;;2.25;;
62153;SDS011;48140;45.486;9.226;2023-05-16T13:53:17;4.40;;;2.13;;
62153;SDS011;48140;45.486;9.226;2023-05-16T13:55:48;3.83;;;2.10;;
62153;SDS011;48140;45.486;9.226;2023-05-16T13:58:14;3.25;;;2.28;;
62153;SDS011;48140;45.486;9.226;2023-05-16T14:10:54;4.28;;;2.22;;
62153;SDS011;48140;45.486;9.226;2023-05-16T14:31:21;5.30;;;3.10;;
62153;SDS011;48140;45.486;9.226;2023-05-16T14:34:18;5.65;;;2.90;;
62153;SDS011;48140;45.486;9.226;2023-05-16T15:06:09;5.43;;;2.72;;
62153;SDS011;48140;45.486;9.226;2023-05-16T15:30:38;4.40;;;2.47;;
62153;SDS011;48140;45.486;9.226;2023-05-16T16:36:31;3.17;;;1.88;;
62153;SDS011;48140;45.486;9.226;2023-05-16T17:54:28;2.45;;;1.60;;
62153;SDS011;48140;45.486;9.226;2023-05-16T18:45:19;1.42;;;1.33;;
62153;SDS011;48140;45.486;9.226;2023-05-16T18:51:45;2.10;;;1.40;;
62153;SDS011;48140;45.486;9.226;2023-05-16T18:54:46;4.32;;;1.40;;
